Terminal Aerodrome Forecast
Issued by NWS

Home | Current Version | Previous Version | Graphics & Text | Print | Product List | Glossary On
Versions: 1 2 3 4 5 6 7 8 9 10 11 12 13 14 15 16 17 18 19 20 21 22
000
FTUS43 KMPX 061848 AAA
TAFRWF
TAF AMD
KRWF 061848Z 0619/0718 13017G28KT P6SM SCT025 BKN120
      TEMPO 0619/0621 4SM -RA BR BKN025
     FM062100 15017G25KT 5SM -SHRA SCT020 BKN035
      TEMPO 0621/0624 2SM TSRA BKN025 OVC040CB
     FM070100 15012G19KT P6SM BKN040
     FM070600 16013G22KT 4SM -SHRA SCT025 BKN040 PROB30 0708/0712
      2SM TSRA BKN025CB
     FM071400 19014G22KT 5SM -RA BKN025=

USA.gov is the U.S. government's official web portal to all federal, state and local government web resources and services.